sensor_id;sensor_type;location;lat;lon;timestamp;pressure;altitude;pressure_sealevel;temperature
43802;BMP280;29429;51.074;13.764;2023-04-20T00:00:56;100307.81;;;7.45
43802;BMP280;29429;51.074;13.764;2023-04-20T00:03:24;100307.47;;;7.48
43802;BMP280;29429;51.074;13.764;2023-04-20T00:05:53;100310.78;;;7.50
43802;BMP280;29429;51.074;13.764;2023-04-20T00:08:21;100307.31;;;7.49
43802;BMP280;29429;51.074;13.764;2023-04-20T00:10:48;100303.50;;;7.52
43802;BMP280;29429;51.074;13.764;2023-04-20T00:13:15;100296.34;;;7.52
43802;BMP280;29429;51.074;13.764;2023-04-20T00:15:43;100305.13;;;7.53
43802;BMP280;29429;51.074;13.764;2023-04-20T00:18:10;100300.84;;;7.52
43802;BMP280;29429;51.074;13.764;2023-04-20T00:20:38;100292.88;;;7.52
43802;BMP280;29429;51.074;13.764;2023-04-20T00:23:05;100295.53;;;7.52
43802;BMP280;29429;51.074;13.764;2023-04-20T00:25:33;100292.53;;;7.47
43802;BMP280;29429;51.074;13.764;2023-04-20T00:28:00;100293.25;;;7.41
43802;BMP280;29429;51.074;13.764;2023-04-20T00:30:27;100289.13;;;7.38
43802;BMP280;29429;51.074;13.764;2023-04-20T00:32:56;100285.97;;;7.34
43802;BMP280;29429;51.074;13.764;2023-04-20T00:35:23;100290.47;;;7.26
43802;BMP280;29429;51.074;13.764;2023-04-20T00:37:51;100293.47;;;7.15
43802;BMP280;29429;51.074;13.764;2023-04-20T00:40:18;100288.34;;;7.05
43802;BMP280;29429;51.074;13.764;2023-04-20T00:42:45;100289.53;;;7.03
43802;BMP280;29429;51.074;13.764;2023-04-20T00:45:13;100289.53;;;7.03
43802;BMP280;29429;51.074;13.764;2023-04-20T00:47:40;100288.69;;;7.02
43802;BMP280;29429;51.074;13.764;2023-04-20T00:50:08;100291.69;;;6.99
43802;BMP280;29429;51.074;13.764;2023-04-20T00:52:38;100292.03;;;6.96
43802;BMP280;29429;51.074;13.764;2023-04-20T00:55:06;100288.56;;;6.88
43802;BMP280;29429;51.074;13.764;2023-04-20T00:57:34;100292.53;;;6.75
43802;BMP280;29429;51.074;13.764;2023-04-20T01:00:02;100291.56;;;6.68
43802;BMP280;29429;51.074;13.764;2023-04-20T01:02:32;100291.22;;;6.63
43802;BMP280;29429;51.074;13.764;2023-04-20T01:05:00;100289.22;;;6.57
43802;BMP280;29429;51.074;13.764;2023-04-20T01:07:29;100298.84;;;6.58
43802;BMP280;29429;51.074;13.764;2023-04-20T01:09:56;100291.38;;;6.62
43802;BMP280;29429;51.074;13.764;2023-04-20T01:12:23;100292.06;;;6.64
43802;BMP280;29429;51.074;13.764;2023-04-20T01:14:51;100287.22;;;6.67
43802;BMP280;29429;51.074;13.764;2023-04-20T01:17:19;100295.03;;;6.69
43802;BMP280;29429;51.074;13.764;2023-04-20T01:19:47;100284.44;;;6.69
43802;BMP280;29429;51.074;13.764;2023-04-20T01:22:21;100278.13;;;6.70
43802;BMP280;29429;51.074;13.764;2023-04-20T01:24:48;100277.78;;;6.65
43802;BMP280;29429;51.074;13.764;2023-04-20T01:27:16;100277.47;;;6.60
43802;BMP280;29429;51.074;13.764;2023-04-20T01:29:44;100273.50;;;6.56
43802;BMP280;29429;51.074;13.764;2023-04-20T01:32:12;100280.44;;;6.41
43802;BMP280;29429;51.074;13.764;2023-04-20T01:34:40;100275.50;;;6.30
43802;BMP280;29429;51.074;13.764;2023-04-20T01:37:07;100272.50;;;6.17
43802;BMP280;29429;51.074;13.764;2023-04-20T01:39:36;100274.78;;;6.03
43802;BMP280;29429;51.074;13.764;2023-04-20T01:42:05;100279.72;;;5.90
43802;BMP280;29429;51.074;13.764;2023-04-20T01:44:33;100271.03;;;5.80
43802;BMP280;29429;51.074;13.764;2023-04-20T01:47:00;100272.16;;;5.70
43802;BMP280;29429;51.074;13.764;2023-04-20T01:49:27;100264.19;;;5.62
43802;BMP280;29429;51.074;13.764;2023-04-20T01:51:55;100273.78;;;5.54
43802;BMP280;29429;51.074;13.764;2023-04-20T01:54:23;100269.28;;;5.47
43802;BMP280;29429;51.074;13.764;2023-04-20T01:56:50;100265.25;;;5.35
43802;BMP280;29429;51.074;13.764;2023-04-20T01:59:17;100270.53;;;5.27
43802;BMP280;29429;51.074;13.764;2023-04-20T02:01:45;100265.03;;;5.20
43802;BMP280;29429;51.074;13.764;2023-04-20T02:04:13;100268.44;;;5.13
43802;BMP280;29429;51.074;13.764;2023-04-20T02:06:40;100269.91;;;5.07
43802;BMP280;29429;51.074;13.764;2023-04-20T02:09:08;100273.34;;;5.00
43802;BMP280;29429;51.074;13.764;2023-04-20T02:11:36;100272.13;;;4.94
43802;BMP280;29429;51.074;13.764;2023-04-20T02:14:05;100267.34;;;4.89
43802;BMP280;29429;51.074;13.764;2023-04-20T02:16:33;100275.19;;;4.81
43802;BMP280;29429;51.074;13.764;2023-04-20T02:19:01;100282.75;;;4.76
43802;BMP280;29429;51.074;13.764;2023-04-20T02:21:29;100267.53;;;4.70
43802;BMP280;29429;51.074;13.764;2023-04-20T02:23:57;100275.09;;;4.65
43802;BMP280;29429;51.074;13.764;2023-04-20T02:26:26;100280.00;;;4.60
43802;BMP280;29429;51.074;13.764;2023-04-20T02:28:53;100280.44;;;4.56
43802;BMP280;29429;51.074;13.764;2023-04-20T02:31:21;100285.22;;;4.52
43802;BMP280;29429;51.074;13.764;2023-04-20T02:33:48;100284.97;;;4.46
43802;BMP280;29429;51.074;13.764;2023-04-20T02:36:16;100289.72;;;4.42
43802;BMP280;29429;51.074;13.764;2023-04-20T02:38:43;100290.06;;;4.39
43802;BMP280;29429;51.074;13.764;2023-04-20T02:41:10;100288.84;;;4.34
43802;BMP280;29429;51.074;13.764;2023-04-20T02:43:38;100285.66;;;4.30
43802;BMP280;29429;51.074;13.764;2023-04-20T02:46:06;100284.16;;;4.27
43802;BMP280;29429;51.074;13.764;2023-04-20T02:48:34;100279.47;;;4.21
43802;BMP280;29429;51.074;13.764;2023-04-20T02:51:01;100277.47;;;4.15
43802;BMP280;29429;51.074;13.764;2023-04-20T02:53:34;100284.00;;;4.11
43802;BMP280;29429;51.074;13.764;2023-04-20T02:56:11;100284.16;;;4.10
43802;BMP280;29429;51.074;13.764;2023-04-20T02:58:45;100288.75;;;4.08
43802;BMP280;29429;51.074;13.764;2023-04-20T03:01:37;100283.25;;;4.01
43802;BMP280;29429;51.074;13.764;2023-04-20T03:04:10;100286.03;;;4.00
43802;BMP280;29429;51.074;13.764;2023-04-20T03:06:45;100285.06;;;4.01
43802;BMP280;29429;51.074;13.764;2023-04-20T03:09:18;100277.59;;;3.96
43802;BMP280;29429;51.074;13.764;2023-04-20T03:12:00;100285.97;;;3.92
43802;BMP280;29429;51.074;13.764;2023-04-20T03:14:52;100280.28;;;3.87
43802;BMP280;29429;51.074;13.764;2023-04-20T03:17:24;100294.47;;;3.86
43802;BMP280;29429;51.074;13.764;2023-04-20T03:19:52;100299.06;;;3.84
43802;BMP280;29429;51.074;13.764;2023-04-20T03:22:19;100300.03;;;3.83
43802;BMP280;29429;51.074;13.764;2023-04-20T03:24:50;100306.97;;;3.84
43802;BMP280;29429;51.074;13.764;2023-04-20T03:27:42;100302.66;;;3.83
43802;BMP280;29429;51.074;13.764;2023-04-20T03:30:13;100303.44;;;3.93
43802;BMP280;29429;51.074;13.764;2023-04-20T03:32:42;100306.03;;;4.02
43802;BMP280;29429;51.074;13.764;2023-04-20T03:35:10;100312.81;;;4.05
43802;BMP280;29429;51.074;13.764;2023-04-20T03:37:38;100318.22;;;4.03
43802;BMP280;29429;51.074;13.764;2023-04-20T03:40:07;100317.78;;;4.08
43802;BMP280;29429;51.074;13.764;2023-04-20T03:42:34;100317.34;;;4.12
43802;BMP280;29429;51.074;13.764;2023-04-20T03:45:04;100316.88;;;4.17
43802;BMP280;29429;51.074;13.764;2023-04-20T03:47:32;100316.50;;;4.12
43802;BMP280;29429;51.074;13.764;2023-04-20T03:49:59;100323.31;;;4.14
43802;BMP280;29429;51.074;13.764;2023-04-20T03:52:27;100318.84;;;4.15
43802;BMP280;29429;51.074;13.764;2023-04-20T03:54:55;100313.63;;;4.05
43802;BMP280;29429;51.074;13.764;2023-04-20T03:57:22;100320.03;;;4.03
43802;BMP280;29429;51.074;13.764;2023-04-20T03:59:50;100326.31;;;4.02
43802;BMP280;29429;51.074;13.764;2023-04-20T04:02:21;100325.59;;;4.00
43802;BMP280;29429;51.074;13.764;2023-04-20T04:04:49;100322.53;;;4.04
43802;BMP280;29429;51.074;13.764;2023-04-20T04:07:17;100321.91;;;4.10
43802;BMP280;29429;51.074;13.764;2023-04-20T04:09:44;100325.66;;;4.17
43802;BMP280;29429;51.074;13.764;2023-04-20T04:12:12;100319.59;;;4.25
43802;BMP280;29429;51.074;13.764;2023-04-20T04:14:39;100320.38;;;4.35
43802;BMP280;29429;51.074;13.764;2023-04-20T04:17:08;100331.66;;;4.45
43802;BMP280;29429;51.074;13.764;2023-04-20T04:19:39;100338.84;;;4.53
43802;BMP280;29429;51.074;13.764;2023-04-20T04:22:08;100334.09;;;4.56
43802;BMP280;29429;51.074;13.764;2023-04-20T04:24:42;100344.06;;;4.62
43802;BMP280;29429;51.074;13.764;2023-04-20T04:27:10;100336.50;;;4.67
43802;BMP280;29429;51.074;13.764;2023-04-20T04:29:48;100339.34;;;4.74
43802;BMP280;29429;51.074;13.764;2023-04-20T04:32:18;100336.94;;;4.80
43802;BMP280;29429;51.074;13.764;2023-04-20T04:34:45;100332.03;;;4.85
43802;BMP280;29429;51.074;13.764;2023-04-20T04:37:14;100334.38;;;4.88
43802;BMP280;29429;51.074;13.764;2023-04-20T04:39:49;100339.72;;;4.97
43802;BMP280;29429;51.074;13.764;2023-04-20T04:42:22;100330.84;;;5.06
43802;BMP280;29429;51.074;13.764;2023-04-20T04:44:50;100338.31;;;5.10
43802;BMP280;29429;51.074;13.764;2023-04-20T04:47:25;100337.50;;;5.10
43802;BMP280;29429;51.074;13.764;2023-04-20T04:49:55;100348.38;;;5.07
43802;BMP280;29429;51.074;13.764;2023-04-20T04:52:23;100343.38;;;5.04
43802;BMP280;29429;51.074;13.764;2023-04-20T04:54:51;100341.09;;;5.09
43802;BMP280;29429;51.074;13.764;2023-04-20T04:57:18;100334.53;;;5.13
43802;BMP280;29429;51.074;13.764;2023-04-20T04:59:45;100331.41;;;5.17
43802;BMP280;29429;51.074;13.764;2023-04-20T05:02:13;100336.88;;;5.16
43802;BMP280;29429;51.074;13.764;2023-04-20T05:04:40;100330.94;;;5.22
43802;BMP280;29429;51.074;13.764;2023-04-20T05:07:08;100335.31;;;5.31
43802;BMP280;29429;51.074;13.764;2023-04-20T05:09:40;100338.66;;;5.41
43802;BMP280;29429;51.074;13.764;2023-04-20T05:12:08;100344.31;;;5.46
43802;BMP280;29429;51.074;13.764;2023-04-20T05:14:35;100362.88;;;5.54
43802;BMP280;29429;51.074;13.764;2023-04-20T05:17:03;100365.22;;;5.57
43802;BMP280;29429;51.074;13.764;2023-04-20T05:19:30;100359.13;;;5.65
43802;BMP280;29429;51.074;13.764;2023-04-20T05:21:57;100365.59;;;5.70
43802;BMP280;29429;51.074;13.764;2023-04-20T05:24:25;100355.34;;;5.67
43802;BMP280;29429;51.074;13.764;2023-04-20T05:26:52;100366.09;;;5.66
43802;BMP280;29429;51.074;13.764;2023-04-20T05:29:20;100359.78;;;5.67
43802;BMP280;29429;51.074;13.764;2023-04-20T05:31:47;100367.09;;;5.73
43802;BMP280;29429;51.074;13.764;2023-04-20T05:34:15;100377.06;;;5.79
43802;BMP280;29429;51.074;13.764;2023-04-20T05:36:42;100381.84;;;5.75
43802;BMP280;29429;51.074;13.764;2023-04-20T05:39:10;100378.53;;;5.73
43802;BMP280;29429;51.074;13.764;2023-04-20T05:41:38;100384.13;;;5.70
43802;BMP280;29429;51.074;13.764;2023-04-20T05:44:05;100372.91;;;5.76
43802;BMP280;29429;51.074;13.764;2023-04-20T05:46:33;100381.69;;;5.77
43802;BMP280;29429;51.074;13.764;2023-04-20T05:49:00;100370.41;;;5.75
43802;BMP280;29429;51.074;13.764;2023-04-20T05:51:31;100380.19;;;5.74
43802;BMP280;29429;51.074;13.764;2023-04-20T05:54:00;100381.16;;;5.73
43802;BMP280;29429;51.074;13.764;2023-04-20T05:56:28;100375.41;;;5.78
43802;BMP280;29429;51.074;13.764;2023-04-20T05:58:55;100378.63;;;5.89
43802;BMP280;29429;51.074;13.764;2023-04-20T06:01:23;100372.56;;;6.05
43802;BMP280;29429;51.074;13.764;2023-04-20T06:03:50;100377.25;;;6.19
43802;BMP280;29429;51.074;13.764;2023-04-20T06:06:18;100376.94;;;6.30
43802;BMP280;29429;51.074;13.764;2023-04-20T06:08:46;100373.84;;;6.43
43802;BMP280;29429;51.074;13.764;2023-04-20T06:11:14;100367.22;;;6.55
43802;BMP280;29429;51.074;13.764;2023-04-20T06:14:02;100366.28;;;6.72
43802;BMP280;29429;51.074;13.764;2023-04-20T06:16:30;100366.59;;;6.77
43802;BMP280;29429;51.074;13.764;2023-04-20T06:18:57;100381.50;;;6.78
43802;BMP280;29429;51.074;13.764;2023-04-20T06:21:25;100379.16;;;6.83
43802;BMP280;29429;51.074;13.764;2023-04-20T06:23:55;100378.69;;;6.88
43802;BMP280;29429;51.074;13.764;2023-04-20T06:26:30;100366.75;;;6.84
43802;BMP280;29429;51.074;13.764;2023-04-20T06:29:02;100364.44;;;6.89
43802;BMP280;29429;51.074;13.764;2023-04-20T06:31:30;100363.25;;;6.99
43802;BMP280;29429;51.074;13.764;2023-04-20T06:33:59;100360.94;;;7.04
43802;BMP280;29429;51.074;13.764;2023-04-20T06:36:26;100368.25;;;7.10
43802;BMP280;29429;51.074;13.764;2023-04-20T06:38:54;100371.84;;;7.25
43802;BMP280;29429;51.074;13.764;2023-04-20T06:41:22;100368.53;;;7.40
43802;BMP280;29429;51.074;13.764;2023-04-20T06:43:50;100363.72;;;7.51
43802;BMP280;29429;51.074;13.764;2023-04-20T06:46:17;100366.81;;;7.55
43802;BMP280;29429;51.074;13.764;2023-04-20T06:48:45;100359.91;;;7.46
43802;BMP280;29429;51.074;13.764;2023-04-20T06:51:12;100371.53;;;7.36
43802;BMP280;29429;51.074;13.764;2023-04-20T06:53:40;100378.81;;;7.34
43802;BMP280;29429;51.074;13.764;2023-04-20T06:56:07;100379.31;;;7.38
43802;BMP280;29429;51.074;13.764;2023-04-20T06:58:35;100369.88;;;7.35
43802;BMP280;29429;51.074;13.764;2023-04-20T07:01:02;100379.00;;;7.41
43802;BMP280;29429;51.074;13.764;2023-04-20T07:03:30;100377.66;;;7.45
43802;BMP280;29429;51.074;13.764;2023-04-20T07:05:58;100369.03;;;7.43
43802;BMP280;29429;51.074;13.764;2023-04-20T07:08:25;100372.84;;;7.41
43802;BMP280;29429;51.074;13.764;2023-04-20T07:10:52;100366.91;;;7.39
43802;BMP280;29429;51.074;13.764;2023-04-20T07:13:20;100375.19;;;7.35
43802;BMP280;29429;51.074;13.764;2023-04-20T07:15:48;100374.03;;;7.38
43802;BMP280;29429;51.074;13.764;2023-04-20T07:18:15;100385.94;;;7.42
43802;BMP280;29429;51.074;13.764;2023-04-20T07:20:43;100378.31;;;7.47
43802;BMP280;29429;51.074;13.764;2023-04-20T07:23:10;100376.47;;;7.56
43802;BMP280;29429;51.074;13.764;2023-04-20T07:25:38;100378.44;;;7.62
43802;BMP280;29429;51.074;13.764;2023-04-20T07:28:05;100380.06;;;7.71
43802;BMP280;29429;51.074;13.764;2023-04-20T07:30:32;100370.91;;;7.81
43802;BMP280;29429;51.074;13.764;2023-04-20T07:33:00;100366.91;;;7.85
43802;BMP280;29429;51.074;13.764;2023-04-20T07:35:27;100374.84;;;7.93
43802;BMP280;29429;51.074;13.764;2023-04-20T07:37:54;100373.97;;;8.01
43802;BMP280;29429;51.074;13.764;2023-04-20T07:40:22;100372.94;;;8.10
43802;BMP280;29429;51.074;13.764;2023-04-20T07:42:49;100367.84;;;8.01
43802;BMP280;29429;51.074;13.764;2023-04-20T07:45:17;100380.09;;;8.10
43802;BMP280;29429;51.074;13.764;2023-04-20T07:47:45;100381.19;;;8.23
43802;BMP280;29429;51.074;13.764;2023-04-20T07:50:13;100376.22;;;8.28
43802;BMP280;29429;51.074;13.764;2023-04-20T07:52:41;100377.66;;;8.39
43802;BMP280;29429;51.074;13.764;2023-04-20T07:55:10;100378.31;;;8.41
43802;BMP280;29429;51.074;13.764;2023-04-20T07:57:39;100373.47;;;8.44
43802;BMP280;29429;51.074;13.764;2023-04-20T08:00:24;100384.44;;;8.41
43802;BMP280;29429;51.074;13.764;2023-04-20T08:02:52;100380.56;;;8.52
43802;BMP280;29429;51.074;13.764;2023-04-20T08:05:19;100381.50;;;8.59
43802;BMP280;29429;51.074;13.764;2023-04-20T08:07:47;100387.25;;;8.71
43802;BMP280;29429;51.074;13.764;2023-04-20T08:10:14;100383.16;;;8.83
43802;BMP280;29429;51.074;13.764;2023-04-20T08:12:42;100371.47;;;8.92
43802;BMP280;29429;51.074;13.764;2023-04-20T08:15:10;100381.50;;;9.04
43802;BMP280;29429;51.074;13.764;2023-04-20T08:17:38;100371.44;;;9.14
43802;BMP280;29429;51.074;13.764;2023-04-20T08:20:06;100374.28;;;9.13
43802;BMP280;29429;51.074;13.764;2023-04-20T08:22:34;100371.97;;;9.10
43802;BMP280;29429;51.074;13.764;2023-04-20T08:25:02;100361.63;;;9.15
43802;BMP280;29429;51.074;13.764;2023-04-20T08:27:30;100355.13;;;9.32
43802;BMP280;29429;51.074;13.764;2023-04-20T08:29:58;100358.38;;;9.42
43802;BMP280;29429;51.074;13.764;2023-04-20T08:32:25;100348.28;;;9.52
43802;BMP280;29429;51.074;13.764;2023-04-20T08:34:54;100348.47;;;9.65
43802;BMP280;29429;51.074;13.764;2023-04-20T08:37:21;100358.09;;;9.81
43802;BMP280;29429;51.074;13.764;2023-04-20T08:39:49;100357.06;;;9.97
43802;BMP280;29429;51.074;13.764;2023-04-20T08:42:16;100357.97;;;10.04
43802;BMP280;29429;51.074;13.764;2023-04-20T08:44:44;100359.19;;;10.16
43802;BMP280;29429;51.074;13.764;2023-04-20T08:47:11;100357.88;;;10.26
43802;BMP280;29429;51.074;13.764;2023-04-20T08:49:39;100367.41;;;10.35
43802;BMP280;29429;51.074;13.764;2023-04-20T08:52:07;100365.81;;;10.41
43802;BMP280;29429;51.074;13.764;2023-04-20T08:54:37;100372.34;;;10.38
43802;BMP280;29429;51.074;13.764;2023-04-20T08:57:15;100370.25;;;10.34
43802;BMP280;29429;51.074;13.764;2023-04-20T08:59:43;100366.75;;;10.33
43802;BMP280;29429;51.074;13.764;2023-04-20T09:02:11;100369.16;;;10.43
43802;BMP280;29429;51.074;13.764;2023-04-20T09:04:40;100360.84;;;10.38
43802;BMP280;29429;51.074;13.764;2023-04-20T09:07:19;100351.03;;;10.38
43802;BMP280;29429;51.074;13.764;2023-04-20T09:09:57;100346.06;;;10.35
43802;BMP280;29429;51.074;13.764;2023-04-20T09:12:25;100344.50;;;10.41
43802;BMP280;29429;51.074;13.764;2023-04-20T09:14:53;100350.34;;;10.51
43802;BMP280;29429;51.074;13.764;2023-04-20T09:17:35;100357.00;;;10.62
43802;BMP280;29429;51.074;13.764;2023-04-20T09:20:03;100363.00;;;10.64
43802;BMP280;29429;51.074;13.764;2023-04-20T09:22:35;100362.22;;;10.70
43802;BMP280;29429;51.074;13.764;2023-04-20T09:25:18;100359.13;;;10.66
43802;BMP280;29429;51.074;13.764;2023-04-20T09:28:00;100367.38;;;10.71
43802;BMP280;29429;51.074;13.764;2023-04-20T09:30:38;100372.22;;;10.61
43802;BMP280;29429;51.074;13.764;2023-04-20T09:33:06;100362.91;;;10.57
43802;BMP280;29429;51.074;13.764;2023-04-20T09:35:40;100355.41;;;10.46
43802;BMP280;29429;51.074;13.764;2023-04-20T09:38:09;100355.41;;;10.46
43802;BMP280;29429;51.074;13.764;2023-04-20T09:40:37;100349.53;;;10.51
43802;BMP280;29429;51.074;13.764;2023-04-20T09:43:18;100344.00;;;10.52
43802;BMP280;29429;51.074;13.764;2023-04-20T09:45:46;100345.41;;;10.48
43802;BMP280;29429;51.074;13.764;2023-04-20T09:48:16;100342.16;;;10.53
43802;BMP280;29429;51.074;13.764;2023-04-20T09:50:46;100343.13;;;10.45
43802;BMP280;29429;51.074;13.764;2023-04-20T09:53:18;100342.25;;;10.23
43802;BMP280;29429;51.074;13.764;2023-04-20T09:55:48;100338.94;;;10.07
43802;BMP280;29429;51.074;13.764;2023-04-20T09:58:17;100343.84;;;10.03
43802;BMP280;29429;51.074;13.764;2023-04-20T10:00:46;100346.03;;;10.00
43802;BMP280;29429;51.074;13.764;2023-04-20T10:03:17;100342.56;;;9.85
43802;BMP280;29429;51.074;13.764;2023-04-20T10:05:46;100336.97;;;9.65
43802;BMP280;29429;51.074;13.764;2023-04-20T10:08:13;100343.38;;;9.56
43802;BMP280;29429;51.074;13.764;2023-04-20T10:10:46;100339.34;;;9.45
43802;BMP280;29429;51.074;13.764;2023-04-20T10:13:15;100338.06;;;9.41
43802;BMP280;29429;51.074;13.764;2023-04-20T10:15:45;100338.34;;;9.46
43802;BMP280;29429;51.074;13.764;2023-04-20T10:18:17;100337.72;;;9.44
43802;BMP280;29429;51.074;13.764;2023-04-20T10:20:45;100335.75;;;9.38
43802;BMP280;29429;51.074;13.764;2023-04-20T10:23:13;100334.41;;;9.42
43802;BMP280;29429;51.074;13.764;2023-04-20T10:25:42;100324.19;;;9.46
43802;BMP280;29429;51.074;13.764;2023-04-20T10:28:11;100328.41;;;9.40
43802;BMP280;29429;51.074;13.764;2023-04-20T10:30:52;100325.47;;;9.35
43802;BMP280;29429;51.074;13.764;2023-04-20T10:33:19;100320.78;;;9.37
43802;BMP280;29429;51.074;13.764;2023-04-20T10:35:54;100324.56;;;9.28
43802;BMP280;29429;51.074;13.764;2023-04-20T10:38:34;100331.25;;;9.24
43802;BMP280;29429;51.074;13.764;2023-04-20T10:43:33;100322.81;;;9.35
43802;BMP280;29429;51.074;13.764;2023-04-20T10:48:56;100325.66;;;9.48
43802;BMP280;29429;51.074;13.764;2023-04-20T10:51:24;100317.22;;;9.59
43802;BMP280;29429;51.074;13.764;2023-04-20T10:54:02;100314.28;;;9.69
43802;BMP280;29429;51.074;13.764;2023-04-20T10:56:48;100311.91;;;9.74
43802;BMP280;29429;51.074;13.764;2023-04-20T10:59:23;100302.97;;;9.82
43802;BMP280;29429;51.074;13.764;2023-04-20T11:01:51;100314.34;;;9.90
43802;BMP280;29429;51.074;13.764;2023-04-20T11:04:29;100308.56;;;9.87
43802;BMP280;29429;51.074;13.764;2023-04-20T11:07:09;100303.16;;;9.80
43802;BMP280;29429;51.074;13.764;2023-04-20T11:09:37;100310.88;;;9.75
43802;BMP280;29429;51.074;13.764;2023-04-20T11:12:06;100301.69;;;9.77
43802;BMP280;29429;51.074;13.764;2023-04-20T11:14:36;100306.53;;;9.89
43802;BMP280;29429;51.074;13.764;2023-04-20T11:17:04;100301.47;;;9.94
43802;BMP280;29429;51.074;13.764;2023-04-20T11:19:36;100306.06;;;10.00
43802;BMP280;29429;51.074;13.764;2023-04-20T11:22:04;100300.00;;;10.06
43802;BMP280;29429;51.074;13.764;2023-04-20T11:24:33;100292.44;;;10.09
43802;BMP280;29429;51.074;13.764;2023-04-20T11:27:02;100300.25;;;10.11
43802;BMP280;29429;51.074;13.764;2023-04-20T11:29:33;100299.50;;;10.17
43802;BMP280;29429;51.074;13.764;2023-04-20T11:32:06;100293.69;;;10.28
43802;BMP280;29429;51.074;13.764;2023-04-20T11:34:35;100293.94;;;10.33
43802;BMP280;29429;51.074;13.764;2023-04-20T11:37:07;100291.03;;;10.49
43802;BMP280;29429;51.074;13.764;2023-04-20T11:39:37;100275.72;;;10.58
43802;BMP280;29429;51.074;13.764;2023-04-20T11:42:05;100282.31;;;10.62
43802;BMP280;29429;51.074;13.764;2023-04-20T11:44:32;100283.25;;;10.75
43802;BMP280;29429;51.074;13.764;2023-04-20T11:47:02;100281.75;;;10.87
43802;BMP280;29429;51.074;13.764;2023-04-20T11:49:30;100280.06;;;10.86
43802;BMP280;29429;51.074;13.764;2023-04-20T11:51:57;100274.34;;;10.89
43802;BMP280;29429;51.074;13.764;2023-04-20T11:54:25;100273.63;;;11.02
43802;BMP280;29429;51.074;13.764;2023-04-20T11:56:53;100273.31;;;11.12
43802;BMP280;29429;51.074;13.764;2023-04-20T11:59:20;100267.38;;;11.16
43802;BMP280;29429;51.074;13.764;2023-04-20T12:01:48;100270.66;;;11.18
43802;BMP280;29429;51.074;13.764;2023-04-20T12:04:15;100269.34;;;11.08
43802;BMP280;29429;51.074;13.764;2023-04-20T12:06:43;100273.16;;;10.92
43802;BMP280;29429;51.074;13.764;2023-04-20T12:09:11;100268.63;;;10.92
43802;BMP280;29429;51.074;13.764;2023-04-20T12:11:39;100268.88;;;10.97
43802;BMP280;29429;51.074;13.764;2023-04-20T12:14:07;100267.22;;;10.96
43802;BMP280;29429;51.074;13.764;2023-04-20T12:16:34;100263.63;;;11.11
43802;BMP280;29429;51.074;13.764;2023-04-20T12:19:02;100261.81;;;11.18
43802;BMP280;29429;51.074;13.764;2023-04-20T12:21:29;100259.81;;;11.26
43802;BMP280;29429;51.074;13.764;2023-04-20T12:23:58;100254.47;;;11.26
43802;BMP280;29429;51.074;13.764;2023-04-20T12:26:26;100254.03;;;11.23
43802;BMP280;29429;51.074;13.764;2023-04-20T12:29:04;100261.41;;;11.14
43802;BMP280;29429;51.074;13.764;2023-04-20T12:31:31;100252.75;;;11.12
43802;BMP280;29429;51.074;13.764;2023-04-20T12:33:59;100244.56;;;11.14
43802;BMP280;29429;51.074;13.764;2023-04-20T12:36:26;100249.50;;;11.17
43802;BMP280;29429;51.074;13.764;2023-04-20T12:38:54;100244.78;;;11.19
43802;BMP280;29429;51.074;13.764;2023-04-20T12:41:22;100241.72;;;11.22
43802;BMP280;29429;51.074;13.764;2023-04-20T12:43:50;100242.13;;;11.25
43802;BMP280;29429;51.074;13.764;2023-04-20T12:46:17;100242.19;;;11.32
43802;BMP280;29429;51.074;13.764;2023-04-20T12:48:45;100236.84;;;11.32
43802;BMP280;29429;51.074;13.764;2023-04-20T12:51:13;100237.25;;;11.29
43802;BMP280;29429;51.074;13.764;2023-04-20T12:53:41;100238.94;;;11.36
43802;BMP280;29429;51.074;13.764;2023-04-20T12:56:08;100225.22;;;11.46
43802;BMP280;29429;51.074;13.764;2023-04-20T12:58:36;100222.16;;;11.55
43802;BMP280;29429;51.074;13.764;2023-04-20T13:01:03;100219.94;;;11.66
43802;BMP280;29429;51.074;13.764;2023-04-20T13:03:31;100221.84;;;11.72
43802;BMP280;29429;51.074;13.764;2023-04-20T13:05:59;100220.63;;;11.74
43802;BMP280;29429;51.074;13.764;2023-04-20T13:08:27;100211.59;;;11.82
43802;BMP280;29429;51.074;13.764;2023-04-20T13:10:54;100214.50;;;11.80
43802;BMP280;29429;51.074;13.764;2023-04-20T13:13:22;100214.06;;;11.70
43802;BMP280;29429;51.074;13.764;2023-04-20T13:15:51;100208.22;;;11.60
43802;BMP280;29429;51.074;13.764;2023-04-20T13:18:19;100209.03;;;11.54
43802;BMP280;29429;51.074;13.764;2023-04-20T13:20:47;100203.22;;;11.44
43802;BMP280;29429;51.074;13.764;2023-04-20T13:23:15;100201.53;;;11.30
43802;BMP280;29429;51.074;13.764;2023-04-20T13:25:42;100200.91;;;11.28
43802;BMP280;29429;51.074;13.764;2023-04-20T13:28:10;100204.59;;;11.27
43802;BMP280;29429;51.074;13.764;2023-04-20T13:30:40;100203.13;;;11.24
43802;BMP280;29429;51.074;13.764;2023-04-20T13:33:14;100201.47;;;11.23
43802;BMP280;29429;51.074;13.764;2023-04-20T13:35:41;100199.63;;;11.24
43802;BMP280;29429;51.074;13.764;2023-04-20T13:38:09;100194.28;;;11.24
43802;BMP280;29429;51.074;13.764;2023-04-20T13:40:37;100204.34;;;11.22
43802;BMP280;29429;51.074;13.764;2023-04-20T13:43:05;100191.22;;;11.27
43802;BMP280;29429;51.074;13.764;2023-04-20T13:45:36;100187.34;;;11.36
43802;BMP280;29429;51.074;13.764;2023-04-20T13:48:03;100190.94;;;11.56
43802;BMP280;29429;51.074;13.764;2023-04-20T13:50:31;100186.94;;;11.80
43802;BMP280;29429;51.074;13.764;2023-04-20T13:52:58;100181.19;;;11.89
43802;BMP280;29429;51.074;13.764;2023-04-20T13:55:26;100181.63;;;11.93
43802;BMP280;29429;51.074;13.764;2023-04-20T13:57:53;100181.63;;;11.93
43802;BMP280;29429;51.074;13.764;2023-04-20T14:00:21;100185.75;;;12.08
43802;BMP280;29429;51.074;13.764;2023-04-20T14:02:49;100181.69;;;12.26
43802;BMP280;29429;51.074;13.764;2023-04-20T14:05:17;100176.13;;;12.47
43802;BMP280;29429;51.074;13.764;2023-04-20T14:07:44;100172.63;;;12.59
43802;BMP280;29429;51.074;13.764;2023-04-20T14:10:23;100164.97;;;12.82